Time;durP1;ratioP1;P1;durP2;ratioP2;P2;SDS_P1;SDS_P2;PMS_P1;PMS_P2;Temp;Humidity;BMP_temperature;BMP_pressure;BME280_temperature;BME280_humidity;BME280_pressure;Samples;Min_cycle;Max_cycle;Signal;HPM_P1;HPM_P2
2022/01/16 00:00:47;;;;;;;7.18;6.07;;;;;;;16.77;45.69;102290.63;5047587;28;20029;-42
2022/01/16 00:05:56;;;;;;;6.30;5.65;;;;;;;16.74;45.66;102251.47;5047597;28;20068;-44
2022/01/16 00:08:22;;;;;;;6.90;5.68;;;;;;;16.65;45.86;102250.31;5046830;28;20142;-45
2022/01/16 00:10:47;;;;;;;7.32;5.50;;;;;;;16.72;45.83;102253.34;5028978;28;20254;-42
2022/01/16 00:13:13;;;;;;;6.15;5.40;;;;;;;16.72;45.82;102250.69;5047259;28;20029;-44
2022/01/16 00:15:38;;;;;;;5.65;5.00;;;;;;;16.71;45.62;102274.00;5047191;28;20029;-42
2022/01/16 00:20:29;;;;;;;6.97;5.93;;;;;;;16.70;45.70;102277.66;5047292;28;20037;-41
2022/01/16 00:22:54;;;;;;;7.07;6.32;;;;;;;16.66;45.53;102261.91;5023213;28;20041;-43
2022/01/16 00:25:20;;;;;;;6.97;6.03;;;;;;;16.69;45.66;102258.97;5042252;28;20035;-46
2022/01/16 00:27:46;;;;;;;8.05;6.47;;;;;;;16.68;45.75;102271.53;5046852;28;20030;-41
2022/01/16 00:30:12;;;;;;;7.53;5.88;;;;;;;16.68;45.60;102270.69;5049354;28;20037;-46
2022/01/16 00:32:37;;;;;;;6.47;5.82;;;;;;;16.60;45.57;102259.69;5027321;28;20030;-43
2022/01/16 00:35:03;;;;;;;6.80;5.57;;;;;;;16.63;45.66;102260.31;5025694;28;20026;-42
2022/01/16 00:37:28;;;;;;;6.10;5.50;;;;;;;16.63;45.49;102252.25;5026766;28;20041;-44
2022/01/16 00:39:53;;;;;;;6.53;5.50;;;;;;;16.65;45.53;102263.75;5008262;28;20077;-43
2022/01/16 00:42:19;;;;;;;7.45;5.85;;;;;;;16.65;45.56;102274.50;5027032;28;20033;-42
2022/01/16 00:44:44;;;;;;;6.38;5.57;;;;;;;16.64;45.56;102264.69;5026902;28;20082;-42
2022/01/16 00:47:09;;;;;;;7.13;5.90;;;;;;;16.64;45.53;102275.44;5026740;28;20492;-43
2022/01/16 00:49:38;;;;;;;7.00;5.45;;;;;;;16.64;45.39;102271.91;5026617;28;20105;-43
2022/01/16 00:52:04;;;;;;;6.88;6.07;;;;;;;16.63;45.47;102257.63;5026723;28;20026;-43
2022/01/16 00:54:29;;;;;;;6.68;5.70;;;;;;;16.63;45.47;102248.72;5008202;28;20584;-44
2022/01/16 00:56:55;;;;;;;6.70;6.00;;;;;;;16.62;45.28;102257.75;5008919;28;20022;-44
2022/01/16 00:59:20;;;;;;;6.22;5.55;;;;;;;16.61;45.36;102254.22;5026200;28;20933;-41
2022/01/16 01:01:45;;;;;;;6.78;5.60;;;;;;;16.60;45.28;102248.94;5005263;28;20109;-42
2022/01/16 01:04:11;;;;;;;6.22;5.07;;;;;;;16.61;45.36;102247.97;5006692;28;20034;-44
2022/01/16 01:06:36;;;;;;;6.88;5.57;;;;;;;16.58;45.37;102224.91;5005004;28;20103;-42
2022/01/16 01:09:01;;;;;;;6.32;5.43;;;;;;;16.56;45.22;102226.00;5006282;28;20046;-43
2022/01/16 01:11:29;;;;;;;7.50;6.10;;;;;;;16.55;45.34;102216.25;5006896;28;20029;-44
2022/01/16 01:14:08;;;;;;;6.57;5.70;;;;;;;16.52;45.42;102240.66;5006641;28;20053;-46
2022/01/16 01:16:54;;;;;;;7.60;5.97;;;;;;;16.50;45.33;102225.53;5006747;28;20480;-47
2022/01/16 01:19:27;;;;;;;6.65;6.05;;;;;;;16.53;45.34;102232.50;5006458;28;20057;-43
2022/01/16 01:21:53;;;;;;;7.05;5.75;;;;;;;16.50;45.37;102224.66;5026100;28;20025;-42
2022/01/16 01:24:18;;;;;;;8.43;6.80;;;;;;;16.52;45.29;102237.97;5013545;28;20037;-45
2022/01/16 01:27:30;;;;;;;7.53;6.15;;;;;;;16.50;45.34;102230.88;5046011;28;20032;-42
2022/01/16 01:29:32;;;;;;;8.68;6.68;;;;;;;16.49;45.38;102233.72;5016717;28;20042;-44
2022/01/16 01:31:58;;;;;;;7.38;6.13;;;;;;;16.47;45.38;102241.84;5026208;28;20486;-42
2022/01/16 01:34:24;;;;;;;8.77;6.38;;;;;;;16.41;45.34;102249.56;5025870;28;20022;-45
2022/01/16 01:36:50;;;;;;;7.65;6.60;;;;;;;16.46;45.31;102256.25;5025627;28;20056;-46
2022/01/16 01:39:17;;;;;;;7.57;6.07;;;;;;;16.46;45.38;102255.41;5025043;28;20046;-43
2022/01/16 01:41:42;;;;;;;7.00;6.18;;;;;;;16.41;45.41;102202.09;5026149;28;20025;-41
2022/01/16 01:52:20;;;;;;;7.57;6.10;;;;;;;16.41;45.51;102150.25;5025741;28;20040;-43
2022/01/16 01:54:46;;;;;;;8.25;6.72;;;;;;;16.39;45.35;102157.53;5043700;28;20120;-43
2022/01/16 01:57:12;;;;;;;8.00;6.15;;;;;;;16.40;45.27;102170.00;5027597;28;20022;-45
2022/01/16 01:59:39;;;;;;;9.55;6.82;;;;;;;16.39;45.31;102165.59;5045313;28;20083;-42
2022/01/16 02:02:06;;;;;;;7.72;6.05;;;;;;;16.39;45.38;102195.97;5034592;28;20066;-45
2022/01/16 02:04:31;;;;;;;5.97;5.18;;;;;;;16.38;45.24;102190.72;5025315;28;20022;-46
2022/01/16 02:06:57;;;;;;;7.35;5.85;;;;;;;16.35;45.23;102183.75;5023871;28;20049;-42
2022/01/16 02:09:22;;;;;;;7.10;6.10;;;;;;;16.35;45.34;102204.38;5023478;28;20033;-44
2022/01/16 02:11:48;;;;;;;7.57;6.03;;;;;;;16.35;45.36;102210.59;5024240;28;20103;-48
2022/01/16 02:28:01;;;;;;;6.72;5.65;;;;;;;16.23;45.27;102190.97;5044620;28;20048;-47
2022/01/16 02:35:47;;;;;;;7.32;5.90;;;;;;;16.28;45.28;102222.81;5044749;28;20029;-46
2022/01/16 02:38:13;;;;;;;7.13;5.72;;;;;;;16.24;45.25;102213.28;5044426;28;20040;-42
2022/01/16 02:40:43;;;;;;;7.22;6.13;;;;;;;16.27;45.34;102210.38;5043744;28;20057;-43
2022/01/16 02:43:08;;;;;;;7.38;5.95;;;;;;;16.26;45.42;102211.31;5044432;28;20036;-43
2022/01/16 02:45:36;;;;;;;6.47;5.30;;;;;;;16.24;45.31;102205.25;5026927;28;20029;-46
2022/01/16 02:48:08;;;;;;;6.63;5.00;;;;;;;16.24;45.22;102205.25;5044510;28;20040;-42
2022/01/16 02:50:35;;;;;;;6.57;5.43;;;;;;;16.24;45.30;102199.88;5044302;28;20036;-45
2022/01/16 02:53:00;;;;;;;7.45;6.13;;;;;;;16.22;45.33;102193.75;5043851;28;20041;-42
2022/01/16 02:55:26;;;;;;;7.40;6.00;;;;;;;16.22;45.28;102191.06;5043790;28;20026;-43
2022/01/16 02:57:53;;;;;;;7.13;5.50;;;;;;;16.22;45.27;102188.38;5026269;28;20025;-44
2022/01/16 03:00:19;;;;;;;7.35;5.88;;;;;;;16.18;45.28;102186.91;5026364;28;20029;-42
2022/01/16 03:02:45;;;;;;;6.88;5.53;;;;;;;16.19;45.23;102191.34;5044256;28;20135;-42
2022/01/16 03:05:12;;;;;;;7.88;5.75;;;;;;;16.18;45.34;102184.22;5044096;28;20045;-43
2022/01/16 03:07:37;;;;;;;8.15;5.85;;;;;;;16.17;45.40;102174.47;5043858;28;20037;-43
2022/01/16 03:10:30;;;;;;;7.28;5.60;;;;;;;16.15;45.42;102168.41;5025504;28;20390;-44
2022/01/16 03:12:54;;;;;;;7.10;5.20;;;;;;;16.11;45.30;102162.41;5043436;28;20029;-44
2022/01/16 03:15:20;;;;;;;7.57;5.78;;;;;;;16.11;45.21;102153.50;5043910;28;20044;-43
2022/01/16 03:23:07;;;;;;;6.82;5.38;;;;;;;16.12;45.06;102174.00;5043628;28;20040;-43
2022/01/16 03:25:33;;;;;;;7.65;5.93;;;;;;;16.12;45.25;102172.16;5043122;28;20025;-42
2022/01/16 03:27:58;;;;;;;6.03;4.85;;;;;;;16.12;45.26;102166.78;5025784;28;20037;-44
2022/01/16 03:30:23;;;;;;;6.53;5.28;;;;;;;16.11;45.48;102162.41;5041924;28;20039;-43
2022/01/16 03:32:48;;;;;;;7.00;5.55;;;;;;;16.10;45.25;102160.72;5043825;28;20076;-42
2022/01/16 03:35:14;;;;;;;7.57;6.30;;;;;;;16.10;45.13;102149.09;5043545;28;20049;-43
2022/01/16 03:37:40;;;;;;;6.22;5.22;;;;;;;16.10;45.32;102149.09;5043479;28;20033;-41
2022/01/16 03:40:10;;;;;;;6.45;5.72;;;;;;;16.08;45.19;102145.69;5029878;28;20053;-44
2022/01/16 03:42:36;;;;;;;7.53;6.05;;;;;;;16.06;45.30;102145.81;5023933;28;20104;-45
2022/01/16 03:45:03;;;;;;;8.02;5.82;;;;;;;16.06;45.21;102139.59;5006357;28;20065;-43
2022/01/16 03:47:28;;;;;;;7.38;5.88;;;;;;;16.01;45.36;102137.25;5006207;28;20053;-43
2022/01/16 03:49:54;;;;;;;7.55;5.97;;;;;;;16.06;45.07;102128.88;5023651;28;20025;-47
2022/01/16 03:52:19;;;;;;;8.07;5.78;;;;;;;16.05;44.98;102127.16;5021421;28;20045;-44
2022/01/16 03:54:44;;;;;;;7.25;5.82;;;;;;;16.03;45.22;102129.97;5003387;28;20085;-43
2022/01/16 03:57:09;;;;;;;7.57;5.93;;;;;;;16.03;45.17;102129.97;5004167;28;20030;-45
2022/01/16 03:59:34;;;;;;;6.65;5.05;;;;;;;16.02;44.93;102130.94;5003904;28;20036;-46
2022/01/16 04:02:00;;;;;;;7.97;5.57;;;;;;;16.02;44.97;102125.56;5004118;28;20031;-45
2022/01/16 04:04:26;;;;;;;7.93;6.30;;;;;;;16.03;45.21;102126.44;4970310;28;20049;-44
2022/01/16 04:06:51;;;;;;;7.45;6.05;;;;;;;16.00;45.18;102122.16;5003842;28;20034;-44
2022/01/16 04:09:16;;;;;;;6.82;5.82;;;;;;;16.01;45.15;102118.47;5003355;28;20033;-45
2022/01/16 04:11:51;;;;;;;10.07;6.72;;;;;;;16.01;45.10;102115.78;5003909;28;20037;-43
2022/01/16 04:14:22;;;;;;;7.80;6.28;;;;;;;15.99;45.12;102123.97;5003859;28;20022;-44
2022/01/16 04:16:48;;;;;;;7.07;5.85;;;;;;;15.99;45.06;102120.44;5003938;28;20033;-44
2022/01/16 04:19:13;;;;;;;8.00;6.15;;;;;;;15.99;45.14;102126.66;5003752;28;20026;-47
2022/01/16 04:21:38;;;;;;;7.85;5.72;;;;;;;15.99;45.12;102115.94;5003909;28;20038;-46
2022/01/16 04:24:04;;;;;;;6.97;5.68;;;;;;;15.99;45.04;102129.34;5008012;28;20040;-46
2022/01/16 04:26:29;;;;;;;6.15;5.30;;;;;;;15.99;45.06;102128.50;5023331;28;20061;-45
2022/01/16 04:28:55;;;;;;;7.25;5.40;;;;;;;15.94;45.03;102110.06;5013960;28;20030;-46
2022/01/16 04:31:21;;;;;;;7.38;5.47;;;;;;;15.99;45.12;102123.13;5018386;28;20104;-48
2022/01/16 04:33:46;;;;;;;7.05;5.25;;;;;;;15.97;45.07;102127.75;5023200;28;20034;-44
2022/01/16 04:36:12;;;;;;;7.43;5.75;;;;;;;15.97;45.14;102125.94;5023352;28;20434;-45
2022/01/16 04:38:44;;;;;;;7.78;5.65;;;;;;;15.97;45.05;102117.88;5023119;28;20041;-44
2022/01/16 04:43:55;;;;;;;6.43;5.55;;;;;;;15.91;45.06;102107.63;5046590;28;20513;-44
2022/01/16 04:46:26;;;;;;;7.85;6.28;;;;;;;15.98;44.98;102116.06;5047041;28;20033;-43
2022/01/16 04:48:53;;;;;;;7.00;5.38;;;;;;;15.98;44.98;102116.91;5028643;28;20450;-45
2022/01/16 04:51:19;;;;;;;7.15;5.63;;;;;;;15.97;45.01;102119.69;5046596;28;20041;-43
2022/01/16 04:53:45;;;;;;;7.13;5.70;;;;;;;15.94;45.00;102101.19;5045143;28;20025;-45
2022/01/16 04:56:11;;;;;;;7.30;5.65;;;;;;;15.98;45.02;102110.69;5046381;28;20112;-46
2022/01/16 04:58:36;;;;;;;7.65;5.47;;;;;;;15.93;44.94;102108.38;5046429;28;20025;-46
2022/01/16 05:01:03;;;;;;;7.32;5.68;;;;;;;15.98;44.94;102114.22;5028595;28;20036;-47
2022/01/16 05:03:30;;;;;;;7.60;5.80;;;;;;;15.98;44.92;102108.88;5046362;28;20229;-45
2022/01/16 05:05:55;;;;;;;7.00;5.55;;;;;;;15.99;44.92;102109.72;5046303;28;20039;-42
2022/01/16 05:08:21;;;;;;;7.43;5.68;;;;;;;15.99;44.88;102101.66;5045700;28;20084;-46
2022/01/16 05:10:47;;;;;;;7.10;5.63;;;;;;;15.99;44.93;102098.97;5045812;28;20033;-43
2022/01/16 05:18:31;;;;;;;7.13;5.50;;;;;;;16.02;44.78;102079.97;5046169;28;20036;-45
2022/01/16 05:20:57;;;;;;;6.68;5.45;;;;;;;16.02;44.85;102093.38;5045772;28;20061;-46
2022/01/16 05:23:22;;;;;;;8.13;6.18;;;;;;;16.02;44.83;102092.53;5045325;28;20040;-46
2022/01/16 05:25:47;;;;;;;6.45;5.15;;;;;;;16.03;44.79;102087.03;5027756;28;20227;-43
2022/01/16 05:28:12;;;;;;;6.60;5.10;;;;;;;16.03;44.79;102081.66;5049202;28;20029;-44
2022/01/16 05:30:38;;;;;;;5.38;4.70;;;;;;;16.03;44.77;102073.63;5047500;28;20033;-46
2022/01/16 05:33:03;;;;;;;7.53;5.60;;;;;;;16.05;44.69;102081.53;5026037;28;20038;-44
2022/01/16 05:35:28;;;;;;;6.35;5.00;;;;;;;16.03;44.83;102068.25;5024731;28;20060;-48
2022/01/16 05:37:53;;;;;;;7.88;5.53;;;;;;;16.05;44.77;102078.84;5025848;28;20033;-46
2022/01/16 05:40:19;;;;;;;6.85;5.25;;;;;;;16.06;44.66;102085.97;5027048;28;20060;-42
2022/01/16 05:42:44;;;;;;;6.72;4.93;;;;;;;16.05;44.84;102074.34;5045718;28;20033;-44
2022/01/16 05:45:09;;;;;;;6.07;4.95;;;;;;;16.06;44.69;102077.91;5045646;28;20025;-42
2022/01/16 05:47:34;;;;;;;6.90;5.35;;;;;;;16.06;44.55;102073.38;5045714;28;20056;-44
2022/01/16 05:49:59;;;;;;;5.80;5.10;;;;;;;16.06;44.69;102075.22;5045248;28;20047;-43
2022/01/16 05:52:25;;;;;;;6.70;5.25;;;;;;;16.06;44.65;102084.13;5044027;28;20035;-43
2022/01/16 05:54:50;;;;;;;6.97;4.90;;;;;;;16.04;44.74;102083.38;5044721;28;20126;-43
2022/01/16 05:57:15;;;;;;;6.18;4.82;;;;;;;16.05;44.76;102084.22;5045594;28;20033;-43
2022/01/16 05:59:41;;;;;;;6.38;5.15;;;;;;;16.05;44.70;102084.22;5045225;28;20026;-43
2022/01/16 06:02:06;;;;;;;7.13;5.07;;;;;;;16.06;44.67;102067.19;5045256;28;20026;-42
2022/01/16 06:04:31;;;;;;;6.68;4.85;;;;;;;16.05;44.69;102068.13;5044847;28;20032;-44
2022/01/16 06:06:56;;;;;;;6.03;4.75;;;;;;;16.06;44.75;102072.53;5031610;28;20068;-44
2022/01/16 06:09:22;;;;;;;7.00;5.40;;;;;;;16.05;44.90;102073.50;5039255;28;20017;-46
2022/01/16 06:11:47;;;;;;;5.50;4.78;;;;;;;16.06;44.69;102073.38;5045072;28;20029;-45
2022/01/16 06:14:12;;;;;;;7.28;5.47;;;;;;;16.08;44.66;102073.25;5044999;28;20029;-43
2022/01/16 06:16:38;;;;;;;6.63;5.50;;;;;;;16.08;44.66;102079.47;5045024;28;20025;-45
2022/01/16 06:19:03;;;;;;;6.72;4.88;;;;;;;16.10;44.67;102079.34;5044804;28;20049;-46
2022/01/16 06:21:28;;;;;;;6.60;5.60;;;;;;;16.10;44.66;102084.72;5044903;28;20114;-43
2022/01/16 06:23:53;;;;;;;7.38;5.38;;;;;;;16.10;44.67;102082.03;5046342;28;20048;-43
2022/01/16 06:26:19;;;;;;;6.88;5.38;;;;;;;16.10;44.58;102074.84;5064903;28;20586;-43
2022/01/16 06:28:44;;;;;;;7.07;5.28;;;;;;;16.11;44.67;102073.03;5058027;28;20494;-42
2022/01/16 06:31:09;;;;;;;7.10;5.32;;;;;;;16.11;44.59;102081.91;5050918;28;20068;-43
2022/01/16 06:33:34;;;;;;;6.75;5.22;;;;;;;16.05;44.66;102062.75;5042773;28;20021;-42
2022/01/16 06:36:01;;;;;;;6.65;5.18;;;;;;;16.11;44.66;102076.56;5023328;28;20105;-42
2022/01/16 06:38:27;;;;;;;5.30;4.60;;;;;;;16.14;44.65;102083.50;5039684;28;20072;-42
2022/01/16 06:40:52;;;;;;;6.25;5.25;;;;;;;16.15;44.51;102082.53;5042661;28;20053;-44
2022/01/16 06:43:17;;;;;;;6.80;5.28;;;;;;;16.15;44.58;102086.06;5044312;28;20029;-44
2022/01/16 06:45:43;;;;;;;6.32;5.25;;;;;;;16.16;44.58;102084.25;5022733;28;20082;-46
2022/01/16 06:48:08;;;;;;;6.78;5.20;;;;;;;16.17;44.64;102096.66;5036710;28;20120;-43
2022/01/16 06:50:33;;;;;;;6.93;5.45;;;;;;;16.17;44.54;102091.31;5043437;28;20094;-42
2022/01/16 06:52:58;;;;;;;7.93;5.20;;;;;;;16.14;44.91;102097.78;5025476;28;20022;-43
2022/01/16 06:55:23;;;;;;;7.18;5.20;;;;;;;16.17;44.67;102097.53;5043048;28;20024;-43
2022/01/16 06:57:49;;;;;;;7.75;5.75;;;;;;;16.19;44.63;102110.84;5025736;28;20053;-43
2022/01/16 07:00:14;;;;;;;5.57;4.93;;;;;;;16.19;44.78;102111.69;5044019;28;20041;-44
2022/01/16 07:02:39;;;;;;;6.32;4.88;;;;;;;16.15;44.62;102104.84;5041079;28;20036;-43
2022/01/16 07:05:05;;;;;;;6.10;5.10;;;;;;;16.15;44.80;102110.22;5029013;28;20126;-44
2022/01/16 07:07:31;;;;;;;7.65;5.90;;;;;;;16.22;44.92;102113.25;5043180;28;20026;-43
2022/01/16 07:09:56;;;;;;;6.60;4.78;;;;;;;16.21;44.97;102108.88;5040936;28;20029;-44
2022/01/16 07:12:21;;;;;;;6.88;5.05;;;;;;;16.24;44.80;102122.06;5042152;28;20028;-43
2022/01/16 07:14:48;;;;;;;6.57;5.15;;;;;;;16.25;44.89;102118.38;5043315;28;20135;-45
2022/01/16 07:17:13;;;;;;;6.75;5.43;;;;;;;16.26;44.82;102112.03;5043261;28;20021;-43
2022/01/16 07:19:39;;;;;;;6.72;5.32;;;;;;;16.19;44.81;102114.38;5025410;28;20033;-45
2022/01/16 07:22:04;;;;;;;7.13;5.72;;;;;;;16.27;45.00;102132.56;5042178;28;20028;-42
2022/01/16 07:24:29;;;;;;;6.78;5.25;;;;;;;16.28;44.98;102136.09;5040703;28;20021;-45
2022/01/16 07:26:55;;;;;;;5.45;4.53;;;;;;;16.25;44.85;102127.28;5042900;28;20017;-46
2022/01/16 07:29:20;;;;;;;6.35;5.10;;;;;;;16.30;44.90;102142.16;5042494;28;20064;-43
2022/01/16 07:31:45;;;;;;;6.07;4.68;;;;;;;16.31;45.05;102144.75;5043127;28;20026;-43
2022/01/16 07:34:11;;;;;;;6.80;4.95;;;;;;;16.29;45.00;102141.31;5041335;28;20126;-46
2022/01/16 07:36:38;;;;;;;6.00;5.18;;;;;;;16.32;44.88;102157.19;5042778;28;20073;-43
2022/01/16 07:39:03;;;;;;;5.80;4.97;;;;;;;16.33;45.05;102148.16;5039051;28;20155;-42
2022/01/16 07:41:28;;;;;;;5.57;4.97;;;;;;;16.34;45.21;102159.75;5043132;28;20216;-44
2022/01/16 07:43:53;;;;;;;6.70;5.40;;;;;;;16.29;45.16;102156.56;5042544;28;20030;-44
2022/01/16 07:46:19;;;;;;;7.82;5.97;;;;;;;16.30;45.40;102164.50;5043032;28;20017;-42
2022/01/16 07:48:44;;;;;;;8.48;6.95;;;;;;;16.41;45.12;102167.19;5041346;28;20022;-42
2022/01/16 07:51:10;;;;;;;9.93;7.07;;;;;;;16.45;45.07;102165.13;5042905;28;20061;-42
2022/01/16 07:53:36;;;;;;;10.70;8.25;;;;;;;16.49;45.08;102162.06;5042546;28;20051;-43
2022/01/16 07:56:02;;;;;;;10.32;7.90;;;;;;;16.45;45.00;102147.19;5042171;28;20025;-43
2022/01/16 07:58:27;;;;;;;9.45;7.63;;;;;;;16.55;45.07;102162.56;5039006;28;20037;-45
2022/01/16 08:00:52;;;;;;;11.10;8.50;;;;;;;16.57;44.96;102171.34;5024580;28;20037;-46
2022/01/16 08:03:17;;;;;;;11.00;7.53;;;;;;;16.55;44.98;102175.97;5042724;28;20060;-43
2022/01/16 08:05:43;;;;;;;8.65;7.30;;;;;;;16.61;44.98;102180.84;5042518;28;20420;-46
2022/01/16 08:08:08;;;;;;;11.43;8.45;;;;;;;16.62;44.99;102172.69;5039454;28;20033;-46
2022/01/16 08:10:33;;;;;;;10.15;7.95;;;;;;;16.65;44.89;102179.63;5024128;28;20013;-47
2022/01/16 08:12:59;;;;;;;9.27;7.78;;;;;;;16.64;44.87;102172.56;5024365;28;20041;-43
2022/01/16 08:15:24;;;;;;;10.38;7.30;;;;;;;16.69;44.79;102173.03;5024925;28;20033;-42
2022/01/16 08:17:49;;;;;;;9.20;7.63;;;;;;;16.68;44.81;102165.97;5045590;28;20041;-43
2022/01/16 08:20:15;;;;;;;11.15;8.13;;;;;;;16.74;44.67;102170.88;5011816;28;20108;-43
2022/01/16 08:22:40;;;;;;;11.80;8.68;;;;;;;16.77;44.78;102172.44;5043005;28;20045;-45
2022/01/16 08:25:07;;;;;;;9.75;7.90;;;;;;;16.79;44.63;102163.31;5045023;28;20063;-43
2022/01/16 08:27:32;;;;;;;11.25;8.43;;;;;;;16.79;44.68;102155.25;5026213;28;20052;-43
2022/01/16 08:29:57;;;;;;;9.68;7.88;;;;;;;16.71;44.75;102147.78;5043418;28;20371;-43
2022/01/16 08:32:23;;;;;;;10.18;7.68;;;;;;;16.80;44.69;102148.88;5040746;28;20032;-43
2022/01/16 08:34:48;;;;;;;11.02;8.48;;;;;;;16.83;44.52;102155.84;5043907;28;20470;-43
2022/01/16 08:37:13;;;;;;;9.98;7.70;;;;;;;16.83;44.68;102159.41;5042001;28;20457;-45
2022/01/16 08:39:38;;;;;;;10.68;8.43;;;;;;;16.85;44.64;102162.78;5041159;28;20060;-44
2022/01/16 08:42:04;;;;;;;9.20;7.57;;;;;;;16.84;44.83;102153.03;5045597;28;20044;-44
2022/01/16 08:44:29;;;;;;;11.00;7.72;;;;;;;16.92;44.56;102166.69;5028435;28;20044;-45
2022/01/16 08:46:54;;;;;;;9.35;7.75;;;;;;;16.94;44.63;102170.09;5045926;28;20059;-43
2022/01/16 08:49:20;;;;;;;10.27;8.32;;;;;;;16.92;44.41;102163.16;5033530;28;20085;-45
2022/01/16 08:51:45;;;;;;;9.27;7.57;;;;;;;16.99;44.43;102172.41;5030623;28;20037;-43
2022/01/16 08:54:10;;;;;;;11.25;8.75;;;;;;;16.98;44.52;102171.56;5027937;28;20029;-45
2022/01/16 08:56:35;;;;;;;11.52;8.68;;;;;;;17.03;44.40;102175.69;5045778;28;20056;-43
2022/01/16 08:59:01;;;;;;;9.93;7.65;;;;;;;17.06;44.32;102164.72;5037253;28;20727;-43
2022/01/16 09:01:26;;;;;;;12.85;8.25;;;;;;;17.07;44.12;102164.56;5030085;28;20536;-45
2022/01/16 09:03:51;;;;;;;12.07;8.40;;;;;;;17.05;44.37;102163.88;5030825;28;20037;-45
2022/01/16 09:06:17;;;;;;;11.02;8.40;;;;;;;17.11;44.28;102175.94;5035782;28;20030;-46
2022/01/16 09:08:42;;;;;;;14.35;8.57;;;;;;;17.03;44.28;102162.28;5044478;28;20037;-44
2022/01/16 09:11:08;;;;;;;10.77;8.07;;;;;;;17.12;44.13;102185.69;5045811;28;20097;-43
2022/01/16 09:13:34;;;;;;;9.82;7.95;;;;;;;17.14;44.31;102187.28;5044346;28;20076;-42
2022/01/16 09:16:00;;;;;;;9.45;7.70;;;;;;;17.12;44.16;102166.88;5045472;28;20041;-45
2022/01/16 09:18:26;;;;;;;10.10;7.78;;;;;;;17.16;44.07;102185.34;5003926;28;20469;-46
2022/01/16 09:20:51;;;;;;;11.00;8.80;;;;;;;17.16;43.90;102184.47;5045312;28;20022;-43
2022/01/16 09:23:16;;;;;;;10.93;8.68;;;;;;;17.18;43.73;102190.59;5045251;28;20429;-42
2022/01/16 09:25:41;;;;;;;10.77;8.63;;;;;;;17.12;44.13;102177.63;5041201;28;20126;-42
2022/01/16 09:28:07;;;;;;;9.55;7.68;;;;;;;17.19;43.85;102189.59;5006868;28;20033;-42
2022/01/16 09:30:33;;;;;;;10.35;8.57;;;;;;;17.20;43.81;102186.81;5026083;28;20090;-44
2022/01/16 09:32:58;;;;;;;14.20;9.23;;;;;;;17.21;43.76;102193.88;5025823;28;20085;-45
2022/01/16 09:35:24;;;;;;;10.57;7.88;;;;;;;17.21;43.69;102204.63;5021974;28;20056;-45
2022/01/16 09:37:51;;;;;;;11.43;7.95;;;;;;;17.22;43.73;102200.09;5026787;28;20643;-43
2022/01/16 09:40:18;;;;;;;9.45;7.57;;;;;;;17.22;43.67;102200.09;5026324;28;20041;-44
2022/01/16 09:42:44;;;;;;;11.00;8.35;;;;;;;17.25;43.63;102213.28;5044971;28;20477;-48
2022/01/16 09:45:11;;;;;;;10.50;8.15;;;;;;;17.26;43.65;102217.69;5042156;28;20026;-45
2022/01/16 09:47:37;;;;;;;10.60;7.93;;;;;;;17.26;43.54;102211.47;5040401;28;20021;-44
2022/01/16 09:50:05;;;;;;;9.30;7.57;;;;;;;17.29;43.64;102221.94;5028282;28;20034;-49
2022/01/16 09:52:34;;;;;;;9.90;7.60;;;;;;;17.25;43.52;102213.28;5035399;28;20064;-49
2022/01/16 09:54:59;;;;;;;10.10;8.05;;;;;;;17.29;43.45;102224.63;5017290;28;20049;-45
2022/01/16 09:57:25;;;;;;;11.82;8.57;;;;;;;17.26;43.48;102222.22;5032464;28;20041;-44
2022/01/16 09:59:50;;;;;;;9.73;7.85;;;;;;;17.31;43.55;102225.38;5033157;28;20034;-44
2022/01/16 10:02:15;;;;;;;11.15;8.15;;;;;;;17.32;43.54;102227.06;5017426;28;20029;-45
2022/01/16 10:04:42;;;;;;;10.35;7.75;;;;;;;17.32;43.56;102222.53;5010117;28;20036;-46
2022/01/16 10:07:10;;;;;;;9.23;7.82;;;;;;;17.33;43.54;102229.66;5044157;28;20381;-48
2022/01/16 10:09:37;;;;;;;9.73;8.15;;;;;;;17.35;43.68;102238.44;5043606;28;20037;-46
2022/01/16 10:12:05;;;;;;;9.75;8.18;;;;;;;17.36;43.47;102244.66;5044575;28;20087;-47
2022/01/16 10:14:37;;;;;;;10.20;7.28;;;;;;;17.37;43.52;102247.22;5044316;28;20056;-48
2022/01/16 10:17:14;;;;;;;10.25;7.68;;;;;;;17.37;43.51;102249.03;5044425;28;20093;-43
2022/01/16 10:19:40;;;;;;;9.55;8.13;;;;;;;17.40;43.42;102257.72;5026654;28;20029;-43
2022/01/16 10:22:14;;;;;;;9.57;7.25;;;;;;;17.43;43.29;102253.94;5043585;28;20055;-42
2022/01/16 10:24:41;;;;;;;9.30;7.07;;;;;;;17.44;43.35;102252.94;5022221;28;20037;-41
2022/01/16 10:27:09;;;;;;;9.45;7.35;;;;;;;17.45;43.44;102251.97;5024672;28;20022;-44
2022/01/16 10:29:36;;;;;;;10.70;7.53;;;;;;;17.42;43.62;102241.47;5041463;28;20060;-42
2022/01/16 10:32:22;;;;;;;8.77;6.63;;;;;;;17.48;43.47;102259.78;5042618;28;20807;-46
2022/01/16 10:34:50;;;;;;;11.15;7.45;;;;;;;17.48;43.28;102260.63;5039979;28;20025;-43
2022/01/16 10:37:30;;;;;;;8.47;6.87;;;;;;;17.48;43.43;102257.94;5008361;28;20036;-44
2022/01/16 10:39:58;;;;;;;8.93;6.95;;;;;;;17.51;43.40;102258.69;5039601;28;20049;-44
2022/01/16 10:42:24;;;;;;;8.70;6.68;;;;;;;17.52;43.41;102252.31;5042362;28;20037;-45
2022/01/16 10:44:58;;;;;;;8.95;6.75;;;;;;;17.53;43.47;102248.66;5035361;28;20040;-48
2022/01/16 10:47:26;;;;;;;7.90;6.30;;;;;;;17.57;43.55;102255.47;5033656;28;20026;-46
2022/01/16 10:50:25;;;;;;;10.05;7.30;;;;;;;17.58;43.53;102252.66;5039659;28;20025;-46
2022/01/16 10:53:12;;;;;;;8.77;6.88;;;;;;;17.59;43.43;102246.31;5021938;28;20461;-45
2022/01/16 10:55:47;;;;;;;9.77;6.63;;;;;;;17.60;43.36;102244.47;5040129;28;20033;-49
2022/01/16 10:58:36;;;;;;;9.20;7.10;;;;;;;17.61;43.59;102248.88;5023304;28;20036;-47
2022/01/16 11:01:08;;;;;;;9.98;6.55;;;;;;;17.60;43.56;102250.72;5009949;28;20029;-47
2022/01/16 11:03:46;;;;;;;7.72;6.10;;;;;;;17.61;43.62;102248.88;5031328;28;20125;-45
2022/01/16 11:06:12;;;;;;;7.22;5.80;;;;;;;17.62;43.14;102242.50;5037503;28;20078;-45
2022/01/16 11:08:38;;;;;;;8.30;5.80;;;;;;;17.64;43.55;102248.63;5031623;28;20393;-43
2022/01/16 11:11:06;;;;;;;7.97;6.13;;;;;;;17.65;43.50;102250.31;5043016;28;20018;-50
2022/01/16 11:13:33;;;;;;;8.48;7.00;;;;;;;17.67;43.58;102248.34;5035129;28;20025;-45
2022/01/16 11:16:03;;;;;;;9.37;6.53;;;;;;;17.70;43.64;102258.84;5035270;28;20056;-46
2022/01/16 11:18:28;;;;;;;;;;;;;;;17.70;43.50;102258.84;5035895;28;20025;-48
2022/01/16 11:21:13;;;;;;;9.35;6.20;;;;;;;17.72;43.53;102254.22;5042498;28;19917;-45
2022/01/16 11:26:11;;;;;;;9.45;5.78;;;;;;;17.80;43.50;102262.53;5027720;28;20021;-44
2022/01/16 11:28:38;;;;;;;6.22;5.43;;;;;;;17.77;43.64;102243.94;5042876;28;20508;-45
2022/01/16 11:31:05;;;;;;;6.40;5.47;;;;;;;17.84;43.46;102261.31;5016989;28;20048;-47
2022/01/16 11:33:33;;;;;;;7.15;5.43;;;;;;;17.86;43.55;102251.25;5033379;28;20059;-46
2022/01/16 11:36:08;;;;;;;6.90;5.25;;;;;;;17.85;43.59;102246.00;5032073;28;20038;-44
2022/01/16 11:38:57;;;;;;;6.55;5.72;;;;;;;17.91;43.35;102254.41;5038511;28;20102;-47
2022/01/16 11:41:35;;;;;;;7.00;4.97;;;;;;;17.91;43.37;102254.41;5017210;28;20057;-49
2022/01/16 11:44:03;;;;;;;6.53;5.23;;;;;;;17.93;43.62;102251.59;5034252;28;20037;-49
2022/01/16 11:46:31;;;;;;;8.20;6.28;;;;;;;17.93;43.51;102257.84;5042915;28;20026;-49
2022/01/16 11:48:58;;;;;;;6.85;5.63;;;;;;;17.95;43.41;102244.22;5042593;28;20033;-50
2022/01/16 11:51:36;;;;;;;7.05;5.20;;;;;;;17.97;43.32;102247.66;5032960;28;20060;-50
2022/01/16 11:54:01;;;;;;;6.35;5.20;;;;;;;17.98;43.41;102250.22;5042045;28;20116;-50
2022/01/16 11:56:41;;;;;;;7.20;5.50;;;;;;;18.00;43.43;102244.69;5039100;28;20137;-49
2022/01/16 11:59:35;;;;;;;8.68;5.47;;;;;;;18.01;43.45;102245.53;5038994;28;20030;-48
2022/01/16 12:02:04;;;;;;;9.27;5.57;;;;;;;18.02;43.44;102252.66;5040236;28;20025;-45
2022/01/16 12:04:30;;;;;;;6.65;5.57;;;;;;;18.02;43.33;102266.09;5037377;28;20113;-45
2022/01/16 12:07:13;;;;;;;7.63;5.72;;;;;;;18.03;43.58;102268.66;5038002;28;20029;-44
2022/01/16 12:12:12;;;;;;;7.28;5.00;;;;;;;18.03;43.48;102265.97;5041042;28;20045;-44
2022/01/16 12:15:00;;;;;;;7.28;5.30;;;;;;;18.05;43.58;102260.44;5035020;28;20025;-47